sensor_id;sensor_type;location;lat;lon;timestamp;P1;durP1;ratioP1;P2;durP2;ratioP2
44078;SDS011;29744;49.078;12.878;2023-03-09T00:04:48;2.16;;;1.30;;
44078;SDS011;29744;49.078;12.878;2023-03-09T00:09:48;2.28;;;1.60;;
44078;SDS011;29744;49.078;12.878;2023-03-09T00:14:52;1.95;;;1.20;;
44078;SDS011;29744;49.078;12.878;2023-03-09T00:19:53;2.13;;;1.42;;
44078;SDS011;29744;49.078;12.878;2023-03-09T00:25:00;2.42;;;1.38;;
44078;SDS011;29744;49.078;12.878;2023-03-09T00:30:00;1.90;;;1.20;;
44078;SDS011;29744;49.078;12.878;2023-03-09T00:35:01;2.28;;;1.38;;
44078;SDS011;29744;49.078;12.878;2023-03-09T00:40:01;2.20;;;1.50;;
44078;SDS011;29744;49.078;12.878;2023-03-09T00:45:01;1.88;;;1.35;;
44078;SDS011;29744;49.078;12.878;2023-03-09T00:50:02;1.85;;;1.15;;
44078;SDS011;29744;49.078;12.878;2023-03-09T00:55:02;2.30;;;1.40;;
44078;SDS011;29744;49.078;12.878;2023-03-09T01:00:03;1.27;;;1.10;;
44078;SDS011;29744;49.078;12.878;2023-03-09T01:05:07;2.33;;;1.60;;
44078;SDS011;29744;49.078;12.878;2023-03-09T01:10:10;2.17;;;1.40;;
44078;SDS011;29744;49.078;12.878;2023-03-09T01:15:13;1.70;;;1.20;;
44078;SDS011;29744;49.078;12.878;2023-03-09T01:20:14;1.77;;;1.30;;
44078;SDS011;29744;49.078;12.878;2023-03-09T01:25:14;1.95;;;1.33;;
44078;SDS011;29744;49.078;12.878;2023-03-09T01:30:14;1.85;;;1.20;;
44078;SDS011;29744;49.078;12.878;2023-03-09T01:35:15;1.65;;;1.23;;
44078;SDS011;29744;49.078;12.878;2023-03-09T01:40:17;2.42;;;1.30;;
44078;SDS011;29744;49.078;12.878;2023-03-09T01:50:21;1.75;;;1.20;;
44078;SDS011;29744;49.078;12.878;2023-03-09T01:55:26;1.58;;;1.10;;
44078;SDS011;29744;49.078;12.878;2023-03-09T02:00:30;1.52;;;1.17;;
44078;SDS011;29744;49.078;12.878;2023-03-09T02:16:12;1.70;;;1.08;;
44078;SDS011;29744;49.078;12.878;2023-03-09T02:26:46;1.95;;;1.15;;
44078;SDS011;29744;49.078;12.878;2023-03-09T02:31:51;1.60;;;1.13;;
44078;SDS011;29744;49.078;12.878;2023-03-09T02:36:51;1.65;;;1.10;;
44078;SDS011;29744;49.078;12.878;2023-03-09T02:41:53;2.05;;;1.30;;
44078;SDS011;29744;49.078;12.878;2023-03-09T02:46:58;1.83;;;1.13;;
44078;SDS011;29744;49.078;12.878;2023-03-09T02:52:06;1.80;;;1.20;;
44078;SDS011;29744;49.078;12.878;2023-03-09T02:57:06;2.00;;;1.20;;
44078;SDS011;29744;49.078;12.878;2023-03-09T03:02:07;1.50;;;1.08;;
44078;SDS011;29744;49.078;12.878;2023-03-09T03:07:09;1.73;;;1.10;;
44078;SDS011;29744;49.078;12.878;2023-03-09T03:12:09;1.77;;;1.15;;
44078;SDS011;29744;49.078;12.878;2023-03-09T03:17:09;1.52;;;1.10;;
44078;SDS011;29744;49.078;12.878;2023-03-09T03:22:10;1.35;;;0.90;;
44078;SDS011;29744;49.078;12.878;2023-03-09T03:27:10;1.33;;;1.10;;
44078;SDS011;29744;49.078;12.878;2023-03-09T03:32:11;1.65;;;1.10;;
44078;SDS011;29744;49.078;12.878;2023-03-09T03:37:11;2.08;;;1.10;;
44078;SDS011;29744;49.078;12.878;2023-03-09T03:42:13;1.58;;;1.08;;
44078;SDS011;29744;49.078;12.878;2023-03-09T03:47:14;1.50;;;1.00;;
44078;SDS011;29744;49.078;12.878;2023-03-09T03:52:14;1.52;;;0.98;;
44078;SDS011;29744;49.078;12.878;2023-03-09T03:57:14;1.42;;;1.00;;
44078;SDS011;29744;49.078;12.878;2023-03-09T04:02:15;1.67;;;1.08;;
44078;SDS011;29744;49.078;12.878;2023-03-09T04:07:15;1.63;;;1.10;;
44078;SDS011;29744;49.078;12.878;2023-03-09T04:12:16;1.90;;;1.02;;
44078;SDS011;29744;49.078;12.878;2023-03-09T04:17:16;1.38;;;1.00;;
44078;SDS011;29744;49.078;12.878;2023-03-09T04:22:16;1.30;;;1.00;;
44078;SDS011;29744;49.078;12.878;2023-03-09T04:27:17;1.60;;;1.10;;
44078;SDS011;29744;49.078;12.878;2023-03-09T04:32:17;1.38;;;1.00;;
44078;SDS011;29744;49.078;12.878;2023-03-09T04:37:17;1.35;;;0.90;;
44078;SDS011;29744;49.078;12.878;2023-03-09T04:42:18;1.58;;;1.00;;
44078;SDS011;29744;49.078;12.878;2023-03-09T04:47:18;1.70;;;0.93;;
44078;SDS011;29744;49.078;12.878;2023-03-09T04:52:18;1.42;;;1.00;;
44078;SDS011;29744;49.078;12.878;2023-03-09T04:57:18;1.42;;;1.00;;
44078;SDS011;29744;49.078;12.878;2023-03-09T05:02:19;1.15;;;0.90;;
44078;SDS011;29744;49.078;12.878;2023-03-09T05:07:19;1.25;;;0.82;;
44078;SDS011;29744;49.078;12.878;2023-03-09T05:12:19;1.45;;;1.00;;
44078;SDS011;29744;49.078;12.878;2023-03-09T05:17:20;1.17;;;0.90;;
44078;SDS011;29744;49.078;12.878;2023-03-09T05:22:20;1.13;;;0.90;;
44078;SDS011;29744;49.078;12.878;2023-03-09T05:27:20;1.30;;;0.90;;
44078;SDS011;29744;49.078;12.878;2023-03-09T05:32:21;1.30;;;0.90;;
44078;SDS011;29744;49.078;12.878;2023-03-09T05:37:21;1.10;;;0.80;;
44078;SDS011;29744;49.078;12.878;2023-03-09T05:42:21;1.15;;;0.80;;
44078;SDS011;29744;49.078;12.878;2023-03-09T05:47:22;1.80;;;0.90;;
44078;SDS011;29744;49.078;12.878;2023-03-09T05:52:22;1.23;;;0.80;;
44078;SDS011;29744;49.078;12.878;2023-03-09T05:57:22;0.90;;;0.70;;
44078;SDS011;29744;49.078;12.878;2023-03-09T06:02:23;0.82;;;0.70;;
44078;SDS011;29744;49.078;12.878;2023-03-09T06:07:23;0.85;;;0.73;;
44078;SDS011;29744;49.078;12.878;2023-03-09T06:12:23;0.70;;;0.60;;
44078;SDS011;29744;49.078;12.878;2023-03-09T06:17:24;1.50;;;0.80;;
44078;SDS011;29744;49.078;12.878;2023-03-09T06:22:24;1.02;;;0.60;;
44078;SDS011;29744;49.078;12.878;2023-03-09T06:27:24;1.40;;;0.80;;
44078;SDS011;29744;49.078;12.878;2023-03-09T06:32:25;1.67;;;0.90;;
44078;SDS011;29744;49.078;12.878;2023-03-09T06:37:25;1.20;;;0.77;;
44078;SDS011;29744;49.078;12.878;2023-03-09T06:42:26;0.70;;;0.60;;
44078;SDS011;29744;49.078;12.878;2023-03-09T06:47:26;1.17;;;0.80;;
44078;SDS011;29744;49.078;12.878;2023-03-09T06:52:27;1.00;;;0.70;;
44078;SDS011;29744;49.078;12.878;2023-03-09T06:57:27;0.70;;;0.60;;
44078;SDS011;29744;49.078;12.878;2023-03-09T07:02:28;0.82;;;0.60;;
44078;SDS011;29744;49.078;12.878;2023-03-09T07:07:28;1.33;;;0.82;;
44078;SDS011;29744;49.078;12.878;2023-03-09T07:12:28;0.93;;;0.70;;
44078;SDS011;29744;49.078;12.878;2023-03-09T07:17:28;1.10;;;0.80;;
44078;SDS011;29744;49.078;12.878;2023-03-09T07:22:29;0.70;;;0.68;;
44078;SDS011;29744;49.078;12.878;2023-03-09T07:27:29;1.00;;;0.73;;
44078;SDS011;29744;49.078;12.878;2023-03-09T07:32:30;0.98;;;0.70;;
44078;SDS011;29744;49.078;12.878;2023-03-09T07:37:31;1.00;;;0.70;;
44078;SDS011;29744;49.078;12.878;2023-03-09T07:42:31;0.73;;;0.60;;
44078;SDS011;29744;49.078;12.878;2023-03-09T07:47:32;0.88;;;0.70;;
44078;SDS011;29744;49.078;12.878;2023-03-09T07:52:32;0.85;;;0.57;;
44078;SDS011;29744;49.078;12.878;2023-03-09T07:57:33;0.57;;;0.50;;
44078;SDS011;29744;49.078;12.878;2023-03-09T08:02:34;0.60;;;0.60;;
44078;SDS011;29744;49.078;12.878;2023-03-09T08:07:34;2.22;;;0.60;;
44078;SDS011;29744;49.078;12.878;2023-03-09T08:12:35;0.73;;;0.35;;
44078;SDS011;29744;49.078;12.878;2023-03-09T08:17:35;1.58;;;0.60;;
44078;SDS011;29744;49.078;12.878;2023-03-09T08:22:35;2.50;;;0.70;;
44078;SDS011;29744;49.078;12.878;2023-03-09T08:27:37;1.60;;;0.80;;
44078;SDS011;29744;49.078;12.878;2023-03-09T08:32:38;1.50;;;0.50;;
44078;SDS011;29744;49.078;12.878;2023-03-09T08:37:39;2.78;;;0.80;;
44078;SDS011;29744;49.078;12.878;2023-03-09T08:42:39;1.33;;;0.60;;
44078;SDS011;29744;49.078;12.878;2023-03-09T08:47:40;4.47;;;1.08;;
44078;SDS011;29744;49.078;12.878;2023-03-09T08:52:41;2.30;;;0.55;;
44078;SDS011;29744;49.078;12.878;2023-03-09T08:57:41;7.18;;;1.33;;
44078;SDS011;29744;49.078;12.878;2023-03-09T09:02:41;2.82;;;0.68;;
44078;SDS011;29744;49.078;12.878;2023-03-09T09:07:42;1.80;;;0.70;;
44078;SDS011;29744;49.078;12.878;2023-03-09T09:12:42;1.92;;;0.52;;
44078;SDS011;29744;49.078;12.878;2023-03-09T09:17:42;1.20;;;0.50;;
44078;SDS011;29744;49.078;12.878;2023-03-09T09:22:42;1.60;;;0.60;;
44078;SDS011;29744;49.078;12.878;2023-03-09T09:27:43;1.92;;;0.60;;
44078;SDS011;29744;49.078;12.878;2023-03-09T09:32:44;6.57;;;1.02;;
44078;SDS011;29744;49.078;12.878;2023-03-09T09:37:44;3.15;;;0.80;;
44078;SDS011;29744;49.078;12.878;2023-03-09T09:42:45;6.88;;;0.85;;
44078;SDS011;29744;49.078;12.878;2023-03-09T09:47:45;2.85;;;0.80;;
44078;SDS011;29744;49.078;12.878;2023-03-09T09:52:46;3.40;;;0.70;;
44078;SDS011;29744;49.078;12.878;2023-03-09T09:57:58;2.47;;;0.80;;
44078;SDS011;29744;49.078;12.878;2023-03-09T10:08:18;2.83;;;1.00;;
44078;SDS011;29744;49.078;12.878;2023-03-09T10:13:45;3.58;;;0.63;;
44078;SDS011;29744;49.078;12.878;2023-03-09T10:18:50;2.88;;;0.90;;
44078;SDS011;29744;49.078;12.878;2023-03-09T10:23:55;2.97;;;0.73;;
44078;SDS011;29744;49.078;12.878;2023-03-09T10:29:02;1.88;;;0.70;;
44078;SDS011;29744;49.078;12.878;2023-03-09T10:39:27;2.15;;;0.60;;
44078;SDS011;29744;49.078;12.878;2023-03-09T10:44:33;1.85;;;0.45;;
44078;SDS011;29744;49.078;12.878;2023-03-09T10:49:34;2.60;;;0.50;;
44078;SDS011;29744;49.078;12.878;2023-03-09T10:54:36;0.65;;;0.40;;
44078;SDS011;29744;49.078;12.878;2023-03-09T10:59:40;6.10;;;1.08;;
44078;SDS011;29744;49.078;12.878;2023-03-09T11:04:54;4.00;;;0.70;;
44078;SDS011;29744;49.078;12.878;2023-03-09T11:09:55;1.52;;;0.60;;
44078;SDS011;29744;49.078;12.878;2023-03-09T11:14:56;2.88;;;0.80;;
44078;SDS011;29744;49.078;12.878;2023-03-09T11:30:47;2.40;;;0.70;;
44078;SDS011;29744;49.078;12.878;2023-03-09T11:35:52;2.10;;;0.57;;
44078;SDS011;29744;49.078;12.878;2023-03-09T11:40:58;1.27;;;0.43;;
44078;SDS011;29744;49.078;12.878;2023-03-09T11:46:06;1.92;;;0.50;;
44078;SDS011;29744;49.078;12.878;2023-03-09T11:51:14;1.83;;;0.50;;
44078;SDS011;29744;49.078;12.878;2023-03-09T11:56:31;4.18;;;0.50;;
44078;SDS011;29744;49.078;12.878;2023-03-09T12:01:37;1.05;;;0.47;;
44078;SDS011;29744;49.078;12.878;2023-03-09T12:12:17;1.70;;;0.50;;
44078;SDS011;29744;49.078;12.878;2023-03-09T12:17:21;2.05;;;0.60;;
44078;SDS011;29744;49.078;12.878;2023-03-09T12:22:29;0.63;;;0.40;;
44078;SDS011;29744;49.078;12.878;2023-03-09T12:27:32;1.98;;;0.50;;
44078;SDS011;29744;49.078;12.878;2023-03-09T12:32:38;1.58;;;0.38;;
44078;SDS011;29744;49.078;12.878;2023-03-09T12:37:49;2.30;;;0.70;;
44078;SDS011;29744;49.078;12.878;2023-03-09T12:48:22;1.25;;;0.43;;
44078;SDS011;29744;49.078;12.878;2023-03-09T12:53:24;1.25;;;0.50;;
44078;SDS011;29744;49.078;12.878;2023-03-09T13:09:15;1.08;;;0.45;;
44078;SDS011;29744;49.078;12.878;2023-03-09T13:29:25;1.27;;;0.50;;
44078;SDS011;29744;49.078;12.878;2023-03-09T13:34:31;1.85;;;0.50;;
44078;SDS011;29744;49.078;12.878;2023-03-09T13:39:34;1.75;;;0.43;;
44078;SDS011;29744;49.078;12.878;2023-03-09T13:44:34;2.20;;;0.63;;
44078;SDS011;29744;49.078;12.878;2023-03-09T13:49:46;0.50;;;0.20;;
44078;SDS011;29744;49.078;12.878;2023-03-09T13:59:57;1.58;;;0.50;;
44078;SDS011;29744;49.078;12.878;2023-03-09T14:10:18;1.55;;;0.50;;
44078;SDS011;29744;49.078;12.878;2023-03-09T14:15:23;1.70;;;0.60;;
44078;SDS011;29744;49.078;12.878;2023-03-09T14:20:24;1.85;;;0.50;;
44078;SDS011;29744;49.078;12.878;2023-03-09T14:25:31;2.22;;;0.90;;
44078;SDS011;29744;49.078;12.878;2023-03-09T14:30:34;1.92;;;0.52;;
44078;SDS011;29744;49.078;12.878;2023-03-09T14:35:41;2.17;;;0.73;;
44078;SDS011;29744;49.078;12.878;2023-03-09T14:40:41;4.43;;;0.95;;
44078;SDS011;29744;49.078;12.878;2023-03-09T14:45:42;3.65;;;0.90;;
44078;SDS011;29744;49.078;12.878;2023-03-09T14:50:43;6.63;;;1.20;;
44078;SDS011;29744;49.078;12.878;2023-03-09T14:55:43;2.72;;;0.80;;
44078;SDS011;29744;49.078;12.878;2023-03-09T15:00:44;2.10;;;0.90;;
44078;SDS011;29744;49.078;12.878;2023-03-09T15:05:44;3.63;;;1.00;;
44078;SDS011;29744;49.078;12.878;2023-03-09T15:10:44;3.08;;;1.15;;
44078;SDS011;29744;49.078;12.878;2023-03-09T15:15:44;2.90;;;1.10;;
44078;SDS011;29744;49.078;12.878;2023-03-09T15:20:45;2.70;;;0.98;;
44078;SDS011;29744;49.078;12.878;2023-03-09T15:25:45;3.30;;;1.10;;
44078;SDS011;29744;49.078;12.878;2023-03-09T15:30:47;3.30;;;0.95;;
44078;SDS011;29744;49.078;12.878;2023-03-09T15:35:48;3.85;;;1.02;;
44078;SDS011;29744;49.078;12.878;2023-03-09T15:40:48;2.90;;;1.08;;
44078;SDS011;29744;49.078;12.878;2023-03-09T15:45:48;3.40;;;1.10;;
44078;SDS011;29744;49.078;12.878;2023-03-09T15:50:49;3.30;;;1.05;;
44078;SDS011;29744;49.078;12.878;2023-03-09T15:55:57;2.35;;;0.75;;
44078;SDS011;29744;49.078;12.878;2023-03-09T16:01:15;4.40;;;1.20;;
44078;SDS011;29744;49.078;12.878;2023-03-09T16:06:23;3.10;;;1.20;;
44078;SDS011;29744;49.078;12.878;2023-03-09T16:11:23;5.40;;;1.58;;
44078;SDS011;29744;49.078;12.878;2023-03-09T16:16:24;3.53;;;1.20;;
44078;SDS011;29744;49.078;12.878;2023-03-09T16:21:24;3.47;;;1.33;;
44078;SDS011;29744;49.078;12.878;2023-03-09T16:26:24;4.68;;;1.48;;
44078;SDS011;29744;49.078;12.878;2023-03-09T16:31:25;4.90;;;1.50;;
44078;SDS011;29744;49.078;12.878;2023-03-09T16:36:26;4.82;;;1.63;;
44078;SDS011;29744;49.078;12.878;2023-03-09T16:41:27;3.55;;;1.50;;
44078;SDS011;29744;49.078;12.878;2023-03-09T16:46:27;4.95;;;1.75;;
44078;SDS011;29744;49.078;12.878;2023-03-09T16:51:28;6.03;;;1.80;;
44078;SDS011;29744;49.078;12.878;2023-03-09T16:56:28;4.05;;;1.50;;
44078;SDS011;29744;49.078;12.878;2023-03-09T17:01:28;4.53;;;1.52;;
44078;SDS011;29744;49.078;12.878;2023-03-09T17:06:29;5.20;;;1.58;;
44078;SDS011;29744;49.078;12.878;2023-03-09T17:11:29;4.98;;;1.60;;
44078;SDS011;29744;49.078;12.878;2023-03-09T17:16:29;4.18;;;1.40;;
44078;SDS011;29744;49.078;12.878;2023-03-09T17:21:34;4.00;;;1.50;;
44078;SDS011;29744;49.078;12.878;2023-03-09T17:26:34;6.13;;;1.48;;
44078;SDS011;29744;49.078;12.878;2023-03-09T17:31:35;4.72;;;1.58;;
44078;SDS011;29744;49.078;12.878;2023-03-09T17:36:35;5.03;;;1.60;;
44078;SDS011;29744;49.078;12.878;2023-03-09T17:41:35;4.65;;;1.38;;
44078;SDS011;29744;49.078;12.878;2023-03-09T17:46:35;5.72;;;1.23;;
44078;SDS011;29744;49.078;12.878;2023-03-09T17:51:36;5.03;;;1.48;;
44078;SDS011;29744;49.078;12.878;2023-03-09T17:56:37;3.58;;;1.52;;
44078;SDS011;29744;49.078;12.878;2023-03-09T18:01:37;5.60;;;1.50;;
44078;SDS011;29744;49.078;12.878;2023-03-09T18:06:39;6.38;;;1.48;;
44078;SDS011;29744;49.078;12.878;2023-03-09T18:11:39;4.78;;;1.35;;
44078;SDS011;29744;49.078;12.878;2023-03-09T18:16:39;3.47;;;1.30;;
44078;SDS011;29744;49.078;12.878;2023-03-09T18:21:41;4.13;;;1.30;;
44078;SDS011;29744;49.078;12.878;2023-03-09T18:26:41;4.93;;;1.40;;
44078;SDS011;29744;49.078;12.878;2023-03-09T18:31:42;3.40;;;1.40;;
44078;SDS011;29744;49.078;12.878;2023-03-09T18:36:42;6.18;;;1.33;;
44078;SDS011;29744;49.078;12.878;2023-03-09T18:41:42;3.95;;;1.38;;
44078;SDS011;29744;49.078;12.878;2023-03-09T18:46:43;3.45;;;1.50;;
44078;SDS011;29744;49.078;12.878;2023-03-09T18:51:43;2.72;;;1.17;;
44078;SDS011;29744;49.078;12.878;2023-03-09T18:56:43;4.85;;;1.40;;
44078;SDS011;29744;49.078;12.878;2023-03-09T19:01:44;4.20;;;1.20;;
44078;SDS011;29744;49.078;12.878;2023-03-09T19:06:44;4.05;;;1.13;;
44078;SDS011;29744;49.078;12.878;2023-03-09T19:11:45;3.58;;;1.45;;
44078;SDS011;29744;49.078;12.878;2023-03-09T19:16:45;3.28;;;1.10;;
44078;SDS011;29744;49.078;12.878;2023-03-09T19:21:45;4.43;;;1.20;;
44078;SDS011;29744;49.078;12.878;2023-03-09T19:26:46;2.83;;;1.20;;
44078;SDS011;29744;49.078;12.878;2023-03-09T19:31:46;3.95;;;1.23;;
44078;SDS011;29744;49.078;12.878;2023-03-09T19:36:46;3.53;;;1.00;;
44078;SDS011;29744;49.078;12.878;2023-03-09T19:41:46;3.25;;;1.08;;
44078;SDS011;29744;49.078;12.878;2023-03-09T19:46:48;3.47;;;1.10;;
44078;SDS011;29744;49.078;12.878;2023-03-09T19:51:48;3.03;;;1.23;;
44078;SDS011;29744;49.078;12.878;2023-03-09T19:56:51;2.72;;;1.17;;
44078;SDS011;29744;49.078;12.878;2023-03-09T20:01:52;3.53;;;1.40;;
44078;SDS011;29744;49.078;12.878;2023-03-09T20:06:54;2.35;;;0.90;;
44078;SDS011;29744;49.078;12.878;2023-03-09T20:11:55;2.85;;;0.93;;
44078;SDS011;29744;49.078;12.878;2023-03-09T20:16:56;3.70;;;1.00;;
44078;SDS011;29744;49.078;12.878;2023-03-09T20:21:56;2.28;;;0.80;;
44078;SDS011;29744;49.078;12.878;2023-03-09T20:26:56;3.10;;;0.98;;
44078;SDS011;29744;49.078;12.878;2023-03-09T20:31:57;2.20;;;1.00;;
44078;SDS011;29744;49.078;12.878;2023-03-09T20:36:58;3.42;;;1.13;;
44078;SDS011;29744;49.078;12.878;2023-03-09T20:41:58;2.40;;;1.08;;
44078;SDS011;29744;49.078;12.878;2023-03-09T20:46:58;4.28;;;1.10;;
44078;SDS011;29744;49.078;12.878;2023-03-09T20:51:59;3.15;;;1.10;;
44078;SDS011;29744;49.078;12.878;2023-03-09T20:57:00;3.15;;;0.95;;
44078;SDS011;29744;49.078;12.878;2023-03-09T21:02:02;3.03;;;1.13;;
44078;SDS011;29744;49.078;12.878;2023-03-09T21:07:02;3.38;;;0.90;;
44078;SDS011;29744;49.078;12.878;2023-03-09T21:12:03;2.25;;;1.13;;
44078;SDS011;29744;49.078;12.878;2023-03-09T21:17:03;2.30;;;0.90;;
44078;SDS011;29744;49.078;12.878;2023-03-09T21:22:04;3.65;;;1.10;;
44078;SDS011;29744;49.078;12.878;2023-03-09T21:27:04;2.60;;;0.80;;
44078;SDS011;29744;49.078;12.878;2023-03-09T21:32:05;2.10;;;0.90;;
44078;SDS011;29744;49.078;12.878;2023-03-09T21:37:05;2.67;;;1.00;;
44078;SDS011;29744;49.078;12.878;2023-03-09T21:42:08;2.25;;;0.90;;
44078;SDS011;29744;49.078;12.878;2023-03-09T21:47:09;2.08;;;1.00;;
44078;SDS011;29744;49.078;12.878;2023-03-09T21:52:09;3.67;;;1.20;;
44078;SDS011;29744;49.078;12.878;2023-03-09T21:57:10;1.67;;;0.70;;
44078;SDS011;29744;49.078;12.878;2023-03-09T22:02:12;3.15;;;1.23;;
44078;SDS011;29744;49.078;12.878;2023-03-09T22:07:14;2.25;;;1.00;;
44078;SDS011;29744;49.078;12.878;2023-03-09T22:12:14;1.88;;;0.90;;
44078;SDS011;29744;49.078;12.878;2023-03-09T22:17:14;2.10;;;0.90;;
44078;SDS011;29744;49.078;12.878;2023-03-09T22:22:15;3.13;;;1.20;;
44078;SDS011;29744;49.078;12.878;2023-03-09T22:27:15;2.30;;;1.00;;
44078;SDS011;29744;49.078;12.878;2023-03-09T22:32:17;1.90;;;0.88;;
44078;SDS011;29744;49.078;12.878;2023-03-09T22:37:18;1.63;;;0.75;;
44078;SDS011;29744;49.078;12.878;2023-03-09T22:42:19;2.33;;;0.98;;
44078;SDS011;29744;49.078;12.878;2023-03-09T22:47:20;1.40;;;0.80;;
44078;SDS011;29744;49.078;12.878;2023-03-09T22:52:20;2.70;;;0.98;;
44078;SDS011;29744;49.078;12.878;2023-03-09T22:57:21;1.63;;;0.85;;
44078;SDS011;29744;49.078;12.878;2023-03-09T23:02:22;0.88;;;0.60;;
44078;SDS011;29744;49.078;12.878;2023-03-09T23:07:22;1.73;;;0.80;;
44078;SDS011;29744;49.078;12.878;2023-03-09T23:12:24;1.75;;;0.90;;
44078;SDS011;29744;49.078;12.878;2023-03-09T23:17:24;2.00;;;0.90;;
44078;SDS011;29744;49.078;12.878;2023-03-09T23:22:25;1.48;;;0.80;;
44078;SDS011;29744;49.078;12.878;2023-03-09T23:27:25;2.08;;;0.90;;
44078;SDS011;29744;49.078;12.878;2023-03-09T23:32:25;2.05;;;0.80;;
44078;SDS011;29744;49.078;12.878;2023-03-09T23:37:26;1.60;;;0.78;;
44078;SDS011;29744;49.078;12.878;2023-03-09T23:42:26;1.55;;;0.75;;
44078;SDS011;29744;49.078;12.878;2023-03-09T23:47:28;1.67;;;0.80;;
44078;SDS011;29744;49.078;12.878;2023-03-09T23:52:29;1.27;;;0.80;;
44078;SDS011;29744;49.078;12.878;2023-03-09T23:57:29;2.13;;;0.77;;
